sensor_id;sensor_type;location;lat;lon;timestamp;temperature;humidity
49503;DHT22;35409;48.776;9.204;2023-04-02T12:05:53;14.30;99.90
49503;DHT22;35409;48.776;9.204;2023-04-02T12:11:05;14.40;99.90
49503;DHT22;35409;48.776;9.204;2023-04-02T12:13:50;14.50;99.90
49503;DHT22;35409;48.776;9.204;2023-04-02T12:16:16;14.70;99.90
49503;DHT22;35409;48.776;9.204;2023-04-02T12:18:44;14.90;99.90
49503;DHT22;35409;48.776;9.204;2023-04-02T12:21:16;14.80;99.90
49503;DHT22;35409;48.776;9.204;2023-04-02T12:23:44;14.70;99.90
49503;DHT22;35409;48.776;9.204;2023-04-02T12:26:34;14.50;99.90
49503;DHT22;35409;48.776;9.204;2023-04-02T12:31:44;14.20;99.90
49503;DHT22;35409;48.776;9.204;2023-04-02T12:34:18;14.00;99.90
49503;DHT22;35409;48.776;9.204;2023-04-02T12:37:17;13.90;99.90
49503;DHT22;35409;48.776;9.204;2023-04-02T12:39:54;13.80;99.90
49503;DHT22;35409;48.776;9.204;2023-04-02T12:42:28;13.70;99.90
49503;DHT22;35409;48.776;9.204;2023-04-02T12:44:54;13.50;99.90
49503;DHT22;35409;48.776;9.204;2023-04-02T12:47:20;13.40;99.90
49503;DHT22;35409;48.776;9.204;2023-04-02T12:49:45;13.30;99.90
49503;DHT22;35409;48.776;9.204;2023-04-02T12:52:14;13.30;99.90
49503;DHT22;35409;48.776;9.204;2023-04-02T12:54:50;13.40;99.90
49503;DHT22;35409;48.776;9.204;2023-04-02T12:59:58;13.40;99.90
49503;DHT22;35409;48.776;9.204;2023-04-02T13:02:28;13.50;99.90
49503;DHT22;35409;48.776;9.204;2023-04-02T13:04:59;13.50;99.90
49503;DHT22;35409;48.776;9.204;2023-04-02T13:07:28;13.50;99.90
49503;DHT22;35409;48.776;9.204;2023-04-02T13:09:56;13.60;99.90
49503;DHT22;35409;48.776;9.204;2023-04-02T13:12:24;13.70;99.90
49503;DHT22;35409;48.776;9.204;2023-04-02T13:14:55;13.90;99.90
49503;DHT22;35409;48.776;9.204;2023-04-02T13:17:45;13.90;99.90
49503;DHT22;35409;48.776;9.204;2023-04-02T13:20:35;13.80;99.90
49503;DHT22;35409;48.776;9.204;2023-04-02T13:28:40;13.20;99.90
49503;DHT22;35409;48.776;9.204;2023-04-02T13:31:12;13.00;99.90
49503;DHT22;35409;48.776;9.204;2023-04-02T13:33:39;12.80;99.90
49503;DHT22;35409;48.776;9.204;2023-04-02T13:36:04;12.80;99.90
49503;DHT22;35409;48.776;9.204;2023-04-02T13:38:30;12.70;99.90
49503;DHT22;35409;48.776;9.204;2023-04-02T13:40:56;12.50;99.90
49503;DHT22;35409;48.776;9.204;2023-04-02T13:43:22;12.30;99.90
49503;DHT22;35409;48.776;9.204;2023-04-02T13:45:52;12.00;99.90
49503;DHT22;35409;48.776;9.204;2023-04-02T13:48:18;11.60;99.90
49503;DHT22;35409;48.776;9.204;2023-04-02T13:50:44;11.30;99.90
49503;DHT22;35409;48.776;9.204;2023-04-02T13:53:25;11.20;99.90
49503;DHT22;35409;48.776;9.204;2023-04-02T13:55:53;11.10;99.90
49503;DHT22;35409;48.776;9.204;2023-04-02T13:58:19;11.00;99.90
49503;DHT22;35409;48.776;9.204;2023-04-02T14:00:45;10.80;99.90
49503;DHT22;35409;48.776;9.204;2023-04-02T14:03:18;10.70;99.90
49503;DHT22;35409;48.776;9.204;2023-04-02T14:06:01;10.70;99.90
49503;DHT22;35409;48.776;9.204;2023-04-02T14:08:57;10.60;99.90
49503;DHT22;35409;48.776;9.204;2023-04-02T14:14:27;10.50;99.90
49503;DHT22;35409;48.776;9.204;2023-04-02T14:20:08;10.30;99.90
49503;DHT22;35409;48.776;9.204;2023-04-02T14:31:05;10.00;99.90
49503;DHT22;35409;48.776;9.204;2023-04-02T14:38:43;9.60;99.90
49503;DHT22;35409;48.776;9.204;2023-04-02T14:41:28;9.50;99.90
49503;DHT22;35409;48.776;9.204;2023-04-02T14:44:04;9.50;99.90
49503;DHT22;35409;48.776;9.204;2023-04-02T14:46:31;9.50;99.90
49503;DHT22;35409;48.776;9.204;2023-04-02T14:49:16;9.60;99.90
49503;DHT22;35409;48.776;9.204;2023-04-02T14:51:58;9.70;99.90
49503;DHT22;35409;48.776;9.204;2023-04-02T14:54:38;9.80;99.90
49503;DHT22;35409;48.776;9.204;2023-04-02T14:57:12;9.80;99.90
49503;DHT22;35409;48.776;9.204;2023-04-02T15:02:42;9.90;99.90
49503;DHT22;35409;48.776;9.204;2023-04-02T15:13:18;9.70;99.90
49503;DHT22;35409;48.776;9.204;2023-04-02T15:16:03;9.60;99.90
49503;DHT22;35409;48.776;9.204;2023-04-02T15:18:30;9.50;99.90
49503;DHT22;35409;48.776;9.204;2023-04-02T15:24:18;9.30;99.90
49503;DHT22;35409;48.776;9.204;2023-04-02T15:34:43;9.00;99.90
49503;DHT22;35409;48.776;9.204;2023-04-02T15:37:32;8.90;99.90
49503;DHT22;35409;48.776;9.204;2023-04-02T16:05:22;8.20;99.90
49503;DHT22;35409;48.776;9.204;2023-04-02T16:10:55;8.10;99.90
49503;DHT22;35409;48.776;9.204;2023-04-02T16:13:32;8.10;99.90
49503;DHT22;35409;48.776;9.204;2023-04-02T16:16:30;8.10;99.90
49503;DHT22;35409;48.776;9.204;2023-04-02T16:22:16;8.00;99.90
49503;DHT22;35409;48.776;9.204;2023-04-02T16:24:45;8.00;99.90
49503;DHT22;35409;48.776;9.204;2023-04-02T16:27:30;7.90;99.90
49503;DHT22;35409;48.776;9.204;2023-04-02T16:35:44;8.00;99.90
49503;DHT22;35409;48.776;9.204;2023-04-02T16:38:45;7.90;99.90
49503;DHT22;35409;48.776;9.204;2023-04-02T16:41:25;7.90;99.90
49503;DHT22;35409;48.776;9.204;2023-04-02T16:52:46;7.90;99.90
49503;DHT22;35409;48.776;9.204;2023-04-02T17:00:57;7.80;99.90
49503;DHT22;35409;48.776;9.204;2023-04-02T17:03:41;7.80;99.90
49503;DHT22;35409;48.776;9.204;2023-04-02T17:14:24;7.70;99.90
49503;DHT22;35409;48.776;9.204;2023-04-02T17:16:56;7.70;99.90
49503;DHT22;35409;48.776;9.204;2023-04-02T17:19:25;7.60;99.90
49503;DHT22;35409;48.776;9.204;2023-04-02T17:21:56;7.60;99.90
49503;DHT22;35409;48.776;9.204;2023-04-02T17:24:27;7.50;99.90
49503;DHT22;35409;48.776;9.204;2023-04-02T17:27:16;7.50;99.90
49503;DHT22;35409;48.776;9.204;2023-04-02T17:29:48;7.40;99.90
49503;DHT22;35409;48.776;9.204;2023-04-02T17:32:21;7.40;99.90
49503;DHT22;35409;48.776;9.204;2023-04-02T17:34:48;7.40;99.90
49503;DHT22;35409;48.776;9.204;2023-04-02T17:42:38;7.30;99.90
49503;DHT22;35409;48.776;9.204;2023-04-02T17:53:31;7.10;99.90
49503;DHT22;35409;48.776;9.204;2023-04-02T17:56:22;7.00;99.90
49503;DHT22;35409;48.776;9.204;2023-04-02T18:04:48;6.70;99.90
49503;DHT22;35409;48.776;9.204;2023-04-02T18:10:25;6.70;99.90
49503;DHT22;35409;48.776;9.204;2023-04-02T18:26:29;6.60;99.90
49503;DHT22;35409;48.776;9.204;2023-04-02T18:44:55;6.30;99.90
49503;DHT22;35409;48.776;9.204;2023-04-02T18:50:20;6.20;99.90
49503;DHT22;35409;48.776;9.204;2023-04-02T18:52:49;6.10;99.90
49503;DHT22;35409;48.776;9.204;2023-04-02T18:55:20;6.10;99.90
49503;DHT22;35409;48.776;9.204;2023-04-02T18:57:50;6.00;99.90
49503;DHT22;35409;48.776;9.204;2023-04-02T19:00:33;6.00;99.90
49503;DHT22;35409;48.776;9.204;2023-04-02T19:03:28;5.90;99.90
49503;DHT22;35409;48.776;9.204;2023-04-02T19:06:05;5.70;99.90
49503;DHT22;35409;48.776;9.204;2023-04-02T19:11:21;5.50;99.90
49503;DHT22;35409;48.776;9.204;2023-04-02T19:14:00;5.50;99.90
49503;DHT22;35409;48.776;9.204;2023-04-02T19:17:02;5.50;99.90
49503;DHT22;35409;48.776;9.204;2023-04-02T19:19:29;5.40;99.90
49503;DHT22;35409;48.776;9.204;2023-04-02T19:22:13;5.40;99.90
49503;DHT22;35409;48.776;9.204;2023-04-02T19:33:08;5.10;99.90
49503;DHT22;35409;48.776;9.204;2023-04-02T19:35:43;5.00;99.90
49503;DHT22;35409;48.776;9.204;2023-04-02T19:41:04;5.00;99.90
49503;DHT22;35409;48.776;9.204;2023-04-02T19:43:34;5.00;99.90
49503;DHT22;35409;48.776;9.204;2023-04-02T19:46:00;5.00;99.90
49503;DHT22;35409;48.776;9.204;2023-04-02T19:48:32;5.00;99.90
49503;DHT22;35409;48.776;9.204;2023-04-02T19:50:59;5.00;99.90
49503;DHT22;35409;48.776;9.204;2023-04-02T19:53:25;4.90;99.90
49503;DHT22;35409;48.776;9.204;2023-04-02T19:55:51;4.80;99.90
49503;DHT22;35409;48.776;9.204;2023-04-02T19:58:26;4.80;99.90
49503;DHT22;35409;48.776;9.204;2023-04-02T20:00:52;4.80;99.90
49503;DHT22;35409;48.776;9.204;2023-04-02T20:03:18;4.80;99.90
49503;DHT22;35409;48.776;9.204;2023-04-02T20:05:44;4.70;99.90
49503;DHT22;35409;48.776;9.204;2023-04-02T20:08:10;4.60;99.90
49503;DHT22;35409;48.776;9.204;2023-04-02T20:10:35;4.60;99.90
49503;DHT22;35409;48.776;9.204;2023-04-02T20:13:01;4.50;99.90
49503;DHT22;35409;48.776;9.204;2023-04-02T20:15:27;4.40;99.90
49503;DHT22;35409;48.776;9.204;2023-04-02T20:17:53;4.50;99.90
49503;DHT22;35409;48.776;9.204;2023-04-02T20:20:18;4.50;99.90
49503;DHT22;35409;48.776;9.204;2023-04-02T20:22:44;4.50;99.90
49503;DHT22;35409;48.776;9.204;2023-04-02T20:25:10;4.40;99.90
49503;DHT22;35409;48.776;9.204;2023-04-02T20:27:35;4.40;99.90
49503;DHT22;35409;48.776;9.204;2023-04-02T20:30:02;4.40;99.90
49503;DHT22;35409;48.776;9.204;2023-04-02T20:32:27;4.40;99.90
49503;DHT22;35409;48.776;9.204;2023-04-02T20:34:54;4.40;99.90
49503;DHT22;35409;48.776;9.204;2023-04-02T20:37:20;4.50;99.90
49503;DHT22;35409;48.776;9.204;2023-04-02T20:39:46;4.40;99.90
49503;DHT22;35409;48.776;9.204;2023-04-02T20:42:12;4.40;99.90
49503;DHT22;35409;48.776;9.204;2023-04-02T20:44:39;4.40;99.90
49503;DHT22;35409;48.776;9.204;2023-04-02T20:47:05;4.40;99.90
49503;DHT22;35409;48.776;9.204;2023-04-02T20:49:32;4.50;99.90
49503;DHT22;35409;48.776;9.204;2023-04-02T20:51:58;4.40;99.90
49503;DHT22;35409;48.776;9.204;2023-04-02T20:54:24;4.40;99.90
49503;DHT22;35409;48.776;9.204;2023-04-02T20:56:50;4.40;99.90
49503;DHT22;35409;48.776;9.204;2023-04-02T20:59:16;4.40;99.90
49503;DHT22;35409;48.776;9.204;2023-04-02T21:01:42;4.40;99.90
49503;DHT22;35409;48.776;9.204;2023-04-02T21:04:08;4.30;99.90
49503;DHT22;35409;48.776;9.204;2023-04-02T21:06:37;4.30;99.90
49503;DHT22;35409;48.776;9.204;2023-04-02T21:09:05;4.40;99.90
49503;DHT22;35409;48.776;9.204;2023-04-02T21:11:31;4.30;99.90
49503;DHT22;35409;48.776;9.204;2023-04-02T21:13:57;4.30;99.90
49503;DHT22;35409;48.776;9.204;2023-04-02T21:16:28;4.30;99.90
49503;DHT22;35409;48.776;9.204;2023-04-02T21:18:55;4.30;99.90
49503;DHT22;35409;48.776;9.204;2023-04-02T21:21:23;4.30;99.90
49503;DHT22;35409;48.776;9.204;2023-04-02T21:23:54;4.30;99.90
49503;DHT22;35409;48.776;9.204;2023-04-02T21:26:20;4.30;99.90
49503;DHT22;35409;48.776;9.204;2023-04-02T21:28:46;4.30;99.90
49503;DHT22;35409;48.776;9.204;2023-04-02T21:31:17;4.30;99.90
49503;DHT22;35409;48.776;9.204;2023-04-02T21:33:45;4.20;99.90
49503;DHT22;35409;48.776;9.204;2023-04-02T21:38:42;4.20;99.90
49503;DHT22;35409;48.776;9.204;2023-04-02T21:41:19;4.20;99.90
49503;DHT22;35409;48.776;9.204;2023-04-02T21:43:45;4.20;99.90
49503;DHT22;35409;48.776;9.204;2023-04-02T21:46:13;4.30;99.90
49503;DHT22;35409;48.776;9.204;2023-04-02T21:48:39;4.40;99.90
49503;DHT22;35409;48.776;9.204;2023-04-02T21:51:14;4.30;99.90
49503;DHT22;35409;48.776;9.204;2023-04-02T21:53:41;4.40;99.90
49503;DHT22;35409;48.776;9.204;2023-04-02T21:56:10;4.40;99.90
49503;DHT22;35409;48.776;9.204;2023-04-02T21:58:36;4.40;99.90
49503;DHT22;35409;48.776;9.204;2023-04-02T22:01:02;4.30;99.90
49503;DHT22;35409;48.776;9.204;2023-04-02T22:03:29;4.30;99.90
49503;DHT22;35409;48.776;9.204;2023-04-02T22:08:28;4.30;99.90
49503;DHT22;35409;48.776;9.204;2023-04-02T22:10:53;4.30;99.90
49503;DHT22;35409;48.776;9.204;2023-04-02T22:13:19;4.30;99.90
49503;DHT22;35409;48.776;9.204;2023-04-02T22:15:45;4.30;99.90
49503;DHT22;35409;48.776;9.204;2023-04-02T22:18:10;4.20;99.90
49503;DHT22;35409;48.776;9.204;2023-04-02T22:20:39;4.20;99.90
49503;DHT22;35409;48.776;9.204;2023-04-02T22:23:05;4.30;99.90
49503;DHT22;35409;48.776;9.204;2023-04-02T22:25:31;4.30;99.90
49503;DHT22;35409;48.776;9.204;2023-04-02T22:27:57;4.20;99.90
49503;DHT22;35409;48.776;9.204;2023-04-02T22:30:22;4.20;99.90
49503;DHT22;35409;48.776;9.204;2023-04-02T22:32:50;4.20;99.90
49503;DHT22;35409;48.776;9.204;2023-04-02T22:35:16;4.20;99.90
49503;DHT22;35409;48.776;9.204;2023-04-02T22:37:42;4.20;99.90
49503;DHT22;35409;48.776;9.204;2023-04-02T22:40:07;4.20;99.90
49503;DHT22;35409;48.776;9.204;2023-04-02T22:42:33;4.20;99.90
49503;DHT22;35409;48.776;9.204;2023-04-02T22:44:59;4.20;99.90
49503;DHT22;35409;48.776;9.204;2023-04-02T22:47:24;4.20;99.90
49503;DHT22;35409;48.776;9.204;2023-04-02T22:49:50;4.20;99.90
49503;DHT22;35409;48.776;9.204;2023-04-02T22:52:15;4.20;99.90
49503;DHT22;35409;48.776;9.204;2023-04-02T22:54:41;4.20;99.90
49503;DHT22;35409;48.776;9.204;2023-04-02T22:57:06;4.20;99.90
49503;DHT22;35409;48.776;9.204;2023-04-02T22:59:32;4.10;99.90
49503;DHT22;35409;48.776;9.204;2023-04-02T23:01:57;4.20;99.90
49503;DHT22;35409;48.776;9.204;2023-04-02T23:04:23;4.10;99.90
49503;DHT22;35409;48.776;9.204;2023-04-02T23:06:49;4.10;99.90
49503;DHT22;35409;48.776;9.204;2023-04-02T23:09:14;4.10;99.90
49503;DHT22;35409;48.776;9.204;2023-04-02T23:11:40;4.10;99.90
49503;DHT22;35409;48.776;9.204;2023-04-02T23:14:06;4.10;99.90
49503;DHT22;35409;48.776;9.204;2023-04-02T23:16:32;4.00;99.90
49503;DHT22;35409;48.776;9.204;2023-04-02T23:18:58;4.00;99.90
49503;DHT22;35409;48.776;9.204;2023-04-02T23:21:24;4.00;99.90
49503;DHT22;35409;48.776;9.204;2023-04-02T23:23:50;4.00;99.90
49503;DHT22;35409;48.776;9.204;2023-04-02T23:26:19;4.00;99.90
49503;DHT22;35409;48.776;9.204;2023-04-02T23:28:46;3.90;99.90
49503;DHT22;35409;48.776;9.204;2023-04-02T23:31:14;3.90;99.90
49503;DHT22;35409;48.776;9.204;2023-04-02T23:33:41;4.00;99.90
49503;DHT22;35409;48.776;9.204;2023-04-02T23:36:29;3.90;99.90
49503;DHT22;35409;48.776;9.204;2023-04-02T23:38:55;3.90;99.90
49503;DHT22;35409;48.776;9.204;2023-04-02T23:41:23;3.90;99.90
49503;DHT22;35409;48.776;9.204;2023-04-02T23:43:49;3.70;99.90
49503;DHT22;35409;48.776;9.204;2023-04-02T23:46:15;3.80;99.90
